createdAt,value
2023-04-06T00:09:49.529Z,38.65
2023-04-06T00:19:51.792Z,39.50
2023-04-06T00:29:54.244Z,39.63
2023-04-06T00:39:56.650Z,40.25
2023-04-06T00:49:59.008Z,40.61
2023-04-06T01:00:01.201Z,41.71
2023-04-06T01:10:04.706Z,41.68
2023-04-06T01:20:08.679Z,40.73
2023-04-06T01:30:12.018Z,41.79
2023-04-06T01:40:19.897Z,42.17
2023-04-06T01:50:25.737Z,42.28
2023-04-06T02:00:28.303Z,41.81
2023-04-06T02:10:31.228Z,41.07
2023-04-06T02:20:37.001Z,42.13
2023-04-06T02:30:39.363Z,41.08
2023-04-06T02:40:41.994Z,41.99
2023-04-06T02:51:10.609Z,41.93
2023-04-06T03:01:13.733Z,41.36
2023-04-06T03:11:17.935Z,42.52
2023-04-06T03:21:20.967Z,42.33
2023-04-06T03:31:27.622Z,42.49
2023-04-06T03:41:36.248Z,43.53
2023-04-06T03:52:06.397Z,43.15
2023-04-06T04:02:08.691Z,42.77
2023-04-06T04:12:11.403Z,42.89
2023-04-06T04:22:13.705Z,42.09
2023-04-06T04:32:17.609Z,41.95
2023-04-06T04:42:21.837Z,42.32
2023-04-06T04:52:27.837Z,42.08
2023-04-06T05:02:36.858Z,42.63
2023-04-06T05:12:58.687Z,41.09
2023-04-06T05:23:02.788Z,38.79
2023-04-06T05:33:07.087Z,36.76
2023-04-06T05:43:26.168Z,37.64
2023-04-06T05:53:31.758Z,36.12
2023-04-06T06:03:35.989Z,35.00
2023-04-06T06:13:38.686Z,35.77
2023-04-06T06:23:43.051Z,36.49
2023-04-06T06:33:51.237Z,35.80
2023-04-06T06:43:55.508Z,35.71
2023-04-06T06:53:58.056Z,35.18
2023-04-06T07:04:00.305Z,34.61
2023-04-06T07:14:03.435Z,33.33
2023-04-06T07:24:05.926Z,34.38
2023-04-06T07:34:08.302Z,33.42
2023-04-06T07:44:11.121Z,32.51
2023-04-06T07:54:14.466Z,31.77
2023-04-06T08:04:16.871Z,32.62
2023-04-06T08:14:19.183Z,31.22
2023-04-06T08:24:21.378Z,29.84
2023-04-06T08:34:23.983Z,29.28
2023-04-06T08:44:26.242Z,29.62
2023-04-06T08:54:28.608Z,29.61
2023-04-06T09:04:30.910Z,29.14
2023-04-06T09:14:39.914Z,29.45
2023-04-06T09:24:53.339Z,26.51
2023-04-06T09:34:55.487Z,27.68
2023-04-06T09:44:57.718Z,26.32
2023-04-06T09:55:05.335Z,25.78
2023-04-06T10:05:17.268Z,26.58
2023-04-06T10:15:22.433Z,26.23
2023-04-06T10:25:32.813Z,27.10
2023-04-06T10:35:39.626Z,26.97
2023-04-06T10:45:44.039Z,26.09
2023-04-06T10:55:46.476Z,27.13
2023-04-06T11:05:50.241Z,26.89
2023-04-06T11:15:52.392Z,27.57
2023-04-06T11:25:55.312Z,26.86
2023-04-06T11:36:00.773Z,24.15
2023-04-06T11:46:05.312Z,25.30
2023-04-06T11:56:07.786Z,24.23
2023-04-06T12:06:09.858Z,24.91
2023-04-06T12:16:12.176Z,25.42
2023-04-06T12:26:14.375Z,25.63
2023-04-06T12:36:20.146Z,26.10
2023-04-06T12:46:23.269Z,25.58
2023-04-06T12:56:27.916Z,25.02
2023-04-06T13:06:30.247Z,25.63
2023-04-06T13:16:36.430Z,25.39
2023-04-06T13:26:38.564Z,26.39
2023-04-06T13:36:42.750Z,27.01
2023-04-06T13:46:44.938Z,26.68
2023-04-06T13:56:47.026Z,28.18
2023-04-06T14:06:53.322Z,28.01
2023-04-06T14:16:59.979Z,27.50
2023-04-06T14:27:04.835Z,28.10
2023-04-06T14:37:07.311Z,28.26
2023-04-06T14:47:10.681Z,31.23
2023-04-06T14:57:12.753Z,32.03
2023-04-06T15:07:15.719Z,30.26
2023-04-06T15:17:18.126Z,32.62
2023-04-06T15:27:20.863Z,34.46
2023-04-06T15:37:22.989Z,35.35
2023-04-06T15:47:25.667Z,37.74
2023-04-06T15:57:27.831Z,37.19
2023-04-06T16:07:31.796Z,37.82
2023-04-06T16:17:36.006Z,38.74
2023-04-06T16:27:38.920Z,42.54
2023-04-06T16:38:06.716Z,43.98
2023-04-06T16:48:12.078Z,43.89
2023-04-06T16:58:15.575Z,42.69
2023-04-06T17:18:53.327Z,48.80
2023-04-06T17:28:55.458Z,50.69
2023-04-06T17:38:57.877Z,51.11
2023-04-06T17:59:36.364Z,56.07
2023-04-06T18:09:39.287Z,55.62
2023-04-06T18:19:41.511Z,56.90
2023-04-06T18:29:47.543Z,57.08
2023-04-06T18:39:49.660Z,57.17
2023-04-06T18:49:51.721Z,57.26
2023-04-06T18:59:55.509Z,58.21
2023-04-06T19:09:58.188Z,58.43
2023-04-06T19:20:02.424Z,57.45
2023-04-06T19:30:05.655Z,58.36
2023-04-06T19:40:10.415Z,59.52
2023-04-06T19:50:12.984Z,59.35
2023-04-06T20:00:16.279Z,59.10
2023-04-06T20:10:19.559Z,60.56
2023-04-06T20:20:21.672Z,60.84
2023-04-06T20:30:23.814Z,61.22
2023-04-06T20:40:25.852Z,61.50
2023-04-06T20:50:27.958Z,61.26
2023-04-06T21:00:30.145Z,61.58
2023-04-06T21:10:32.900Z,60.69
2023-04-06T21:20:35.473Z,62.21
2023-04-06T21:30:37.750Z,61.28
2023-04-06T21:40:39.915Z,61.82
2023-04-06T21:50:42.058Z,62.23
2023-04-06T22:00:44.495Z,64.05
2023-04-06T22:10:46.593Z,63.72
2023-04-06T22:20:48.653Z,63.04
2023-04-06T22:30:50.748Z,62.93
2023-04-06T22:40:52.852Z,60.77
2023-04-06T22:50:56.017Z,61.83
2023-04-06T23:00:58.135Z,62.92
2023-04-06T23:11:00.447Z,62.48
2023-04-06T23:21:02.532Z,62.83
2023-04-06T23:31:04.608Z,62.46
2023-04-06T23:41:06.714Z,64.67
2023-04-06T23:51:08.969Z,62.92
